Bethlehem, New York
Current Conditions -  °F | °C
As of 6:51 PM on Wednesday 28 Jan 2015 (Local Time) from KALB Reporting Station
Clear Clear  
Wind Chill:   Ceiling: Unl
Heat Index: 19°   Visibility: 10mi
Dew Point: -1°   Wind: 8mph
Humidity: 42%   Direction: 350°N
Pressure: 30.25"   Gusts: NA
Location:  42.6018°N, 73.8686°W
Report Text: KALB 282351Z 35007KT 10SM CLR M07/M18 A3025 RMK AO2 SLP247 4/005 T10721183 11050 21078 53029
Loading
Personal Weather Stations






























Interactive Weather Map New forecast layout! Learn more

10-Day Weather Forecast

Advertisements
Track Severe Weather on mobile